sensor_id;sensor_type;location;lat;lon;timestamp;P1;durP1;ratioP1;P2;durP2;ratioP2
57828;SDS011;43657;52.698;6.314;2022-11-20T00:00:45;20.48;;;11.02;;
57828;SDS011;43657;52.698;6.314;2022-11-20T00:03:12;24.13;;;11.80;;
57828;SDS011;43657;52.698;6.314;2022-11-20T00:05:38;23.10;;;11.55;;
57828;SDS011;43657;52.698;6.314;2022-11-20T00:08:03;24.73;;;13.23;;
57828;SDS011;43657;52.698;6.314;2022-11-20T00:10:30;19.42;;;11.65;;
57828;SDS011;43657;52.698;6.314;2022-11-20T00:12:59;25.63;;;13.88;;
57828;SDS011;43657;52.698;6.314;2022-11-20T00:15:25;23.27;;;13.32;;
57828;SDS011;43657;52.698;6.314;2022-11-20T00:17:50;24.08;;;14.00;;
57828;SDS011;43657;52.698;6.314;2022-11-20T00:20:16;24.10;;;13.57;;
57828;SDS011;43657;52.698;6.314;2022-11-20T00:22:41;25.90;;;14.15;;
57828;SDS011;43657;52.698;6.314;2022-11-20T00:25:07;26.98;;;13.57;;
57828;SDS011;43657;52.698;6.314;2022-11-20T00:27:33;22.17;;;11.82;;
57828;SDS011;43657;52.698;6.314;2022-11-20T00:29:58;27.98;;;13.48;;
57828;SDS011;43657;52.698;6.314;2022-11-20T00:32:24;21.65;;;12.75;;
57828;SDS011;43657;52.698;6.314;2022-11-20T00:34:50;22.05;;;12.50;;
57828;SDS011;43657;52.698;6.314;2022-11-20T00:37:15;27.17;;;12.77;;
57828;SDS011;43657;52.698;6.314;2022-11-20T00:39:41;25.17;;;12.75;;
57828;SDS011;43657;52.698;6.314;2022-11-20T00:42:06;23.02;;;12.43;;
57828;SDS011;43657;52.698;6.314;2022-11-20T00:44:32;20.77;;;11.70;;
57828;SDS011;43657;52.698;6.314;2022-11-20T00:46:57;21.75;;;13.60;;
57828;SDS011;43657;52.698;6.314;2022-11-20T00:49:23;30.58;;;11.50;;
57828;SDS011;43657;52.698;6.314;2022-11-20T00:51:48;24.10;;;12.07;;
57828;SDS011;43657;52.698;6.314;2022-11-20T00:54:14;22.65;;;11.65;;
57828;SDS011;43657;52.698;6.314;2022-11-20T00:56:40;22.48;;;12.00;;
57828;SDS011;43657;52.698;6.314;2022-11-20T00:59:05;25.42;;;11.95;;
57828;SDS011;43657;52.698;6.314;2022-11-20T01:01:31;21.70;;;12.15;;
57828;SDS011;43657;52.698;6.314;2022-11-20T01:03:57;20.35;;;11.60;;
57828;SDS011;43657;52.698;6.314;2022-11-20T01:06:26;23.42;;;11.25;;
57828;SDS011;43657;52.698;6.314;2022-11-20T01:08:56;27.20;;;13.00;;
57828;SDS011;43657;52.698;6.314;2022-11-20T01:11:24;23.58;;;12.07;;
57828;SDS011;43657;52.698;6.314;2022-11-20T01:13:53;23.08;;;12.80;;
57828;SDS011;43657;52.698;6.314;2022-11-20T01:16:23;23.30;;;13.15;;
57828;SDS011;43657;52.698;6.314;2022-11-20T01:18:52;24.35;;;11.93;;
57828;SDS011;43657;52.698;6.314;2022-11-20T01:21:21;22.30;;;11.80;;
57828;SDS011;43657;52.698;6.314;2022-11-20T01:23:49;21.30;;;12.20;;
57828;SDS011;43657;52.698;6.314;2022-11-20T01:26:16;21.58;;;12.10;;
57828;SDS011;43657;52.698;6.314;2022-11-20T01:28:47;22.70;;;11.60;;
57828;SDS011;43657;52.698;6.314;2022-11-20T01:31:17;19.70;;;10.43;;
57828;SDS011;43657;52.698;6.314;2022-11-20T01:33:46;18.70;;;9.88;;
57828;SDS011;43657;52.698;6.314;2022-11-20T01:36:14;15.23;;;8.88;;
57828;SDS011;43657;52.698;6.314;2022-11-20T01:38:40;21.58;;;10.70;;
57828;SDS011;43657;52.698;6.314;2022-11-20T01:41:06;23.15;;;11.20;;
57828;SDS011;43657;52.698;6.314;2022-11-20T01:43:32;18.05;;;10.60;;
57828;SDS011;43657;52.698;6.314;2022-11-20T01:48:42;19.98;;;10.57;;
57828;SDS011;43657;52.698;6.314;2022-11-20T01:53:47;19.23;;;10.65;;
57828;SDS011;43657;52.698;6.314;2022-11-20T01:56:14;19.63;;;10.30;;
57828;SDS011;43657;52.698;6.314;2022-11-20T01:58:42;18.63;;;9.18;;
57828;SDS011;43657;52.698;6.314;2022-11-20T02:01:13;17.48;;;10.00;;
57828;SDS011;43657;52.698;6.314;2022-11-20T02:03:39;19.55;;;10.10;;
57828;SDS011;43657;52.698;6.314;2022-11-20T02:08:37;21.17;;;10.85;;
57828;SDS011;43657;52.698;6.314;2022-11-20T02:11:02;18.73;;;9.65;;
57828;SDS011;43657;52.698;6.314;2022-11-20T02:13:28;13.48;;;8.68;;
57828;SDS011;43657;52.698;6.314;2022-11-20T02:16:10;17.40;;;9.57;;
57828;SDS011;43657;52.698;6.314;2022-11-20T02:18:42;14.50;;;8.77;;
57828;SDS011;43657;52.698;6.314;2022-11-20T02:23:54;16.10;;;8.75;;
57828;SDS011;43657;52.698;6.314;2022-11-20T02:26:30;18.42;;;8.65;;
57828;SDS011;43657;52.698;6.314;2022-11-20T02:28:57;18.40;;;8.80;;
57828;SDS011;43657;52.698;6.314;2022-11-20T02:31:24;20.67;;;9.18;;
57828;SDS011;43657;52.698;6.314;2022-11-20T02:33:56;14.45;;;8.07;;
57828;SDS011;43657;52.698;6.314;2022-11-20T02:36:22;16.00;;;8.85;;
57828;SDS011;43657;52.698;6.314;2022-11-20T02:38:51;15.40;;;8.95;;
57828;SDS011;43657;52.698;6.314;2022-11-20T02:41:16;16.85;;;9.35;;
57828;SDS011;43657;52.698;6.314;2022-11-20T02:43:42;18.45;;;8.98;;
57828;SDS011;43657;52.698;6.314;2022-11-20T02:46:08;16.20;;;9.57;;
57828;SDS011;43657;52.698;6.314;2022-11-20T02:48:33;16.60;;;9.65;;
57828;SDS011;43657;52.698;6.314;2022-11-20T02:50:59;18.30;;;10.82;;
57828;SDS011;43657;52.698;6.314;2022-11-20T02:53:25;18.00;;;10.13;;
57828;SDS011;43657;52.698;6.314;2022-11-20T02:55:50;19.55;;;9.88;;
57828;SDS011;43657;52.698;6.314;2022-11-20T02:58:16;19.55;;;9.48;;
57828;SDS011;43657;52.698;6.314;2022-11-20T03:00:41;15.50;;;9.63;;
57828;SDS011;43657;52.698;6.314;2022-11-20T03:03:07;16.55;;;9.40;;
57828;SDS011;43657;52.698;6.314;2022-11-20T03:05:32;17.15;;;9.40;;
57828;SDS011;43657;52.698;6.314;2022-11-20T03:07:58;17.13;;;9.70;;
57828;SDS011;43657;52.698;6.314;2022-11-20T03:10:24;17.10;;;9.90;;
57828;SDS011;43657;52.698;6.314;2022-11-20T03:12:53;16.63;;;9.23;;
57828;SDS011;43657;52.698;6.314;2022-11-20T03:15:20;16.52;;;8.77;;
57828;SDS011;43657;52.698;6.314;2022-11-20T03:17:46;16.83;;;9.45;;
57828;SDS011;43657;52.698;6.314;2022-11-20T03:20:12;16.23;;;9.30;;
57828;SDS011;43657;52.698;6.314;2022-11-20T03:22:37;17.60;;;10.32;;
57828;SDS011;43657;52.698;6.314;2022-11-20T03:25:03;17.15;;;9.75;;
57828;SDS011;43657;52.698;6.314;2022-11-20T03:27:33;19.05;;;10.30;;
57828;SDS011;43657;52.698;6.314;2022-11-20T03:30:02;18.05;;;9.00;;
57828;SDS011;43657;52.698;6.314;2022-11-20T03:32:30;17.50;;;9.88;;
57828;SDS011;43657;52.698;6.314;2022-11-20T03:34:56;17.50;;;9.95;;
57828;SDS011;43657;52.698;6.314;2022-11-20T03:37:22;23.88;;;11.70;;
57828;SDS011;43657;52.698;6.314;2022-11-20T03:39:59;17.17;;;8.25;;
57828;SDS011;43657;52.698;6.314;2022-11-20T03:42:28;16.48;;;8.52;;
57828;SDS011;43657;52.698;6.314;2022-11-20T03:45:21;16.67;;;9.63;;
57828;SDS011;43657;52.698;6.314;2022-11-20T03:47:55;17.52;;;9.35;;
57828;SDS011;43657;52.698;6.314;2022-11-20T03:50:21;18.85;;;10.60;;
57828;SDS011;43657;52.698;6.314;2022-11-20T03:52:50;15.55;;;9.70;;
57828;SDS011;43657;52.698;6.314;2022-11-20T03:55:15;18.00;;;10.45;;
57828;SDS011;43657;52.698;6.314;2022-11-20T03:57:41;18.35;;;10.65;;
57828;SDS011;43657;52.698;6.314;2022-11-20T04:00:07;21.25;;;12.30;;
57828;SDS011;43657;52.698;6.314;2022-11-20T04:02:37;17.35;;;9.18;;
57828;SDS011;43657;52.698;6.314;2022-11-20T04:05:02;19.77;;;10.13;;
57828;SDS011;43657;52.698;6.314;2022-11-20T04:07:29;17.98;;;9.90;;
57828;SDS011;43657;52.698;6.314;2022-11-20T04:10:04;18.20;;;9.93;;
57828;SDS011;43657;52.698;6.314;2022-11-20T04:12:33;19.60;;;9.85;;
57828;SDS011;43657;52.698;6.314;2022-11-20T04:14:59;18.90;;;9.88;;
57828;SDS011;43657;52.698;6.314;2022-11-20T04:17:25;18.58;;;9.55;;
57828;SDS011;43657;52.698;6.314;2022-11-20T04:20:06;17.92;;;10.50;;
57828;SDS011;43657;52.698;6.314;2022-11-20T04:22:32;17.88;;;10.57;;
57828;SDS011;43657;52.698;6.314;2022-11-20T04:25:04;16.13;;;8.93;;
57828;SDS011;43657;52.698;6.314;2022-11-20T04:27:42;16.70;;;9.18;;
57828;SDS011;43657;52.698;6.314;2022-11-20T04:30:11;18.70;;;10.05;;
57828;SDS011;43657;52.698;6.314;2022-11-20T04:32:40;15.45;;;9.88;;
57828;SDS011;43657;52.698;6.314;2022-11-20T04:35:14;17.45;;;9.90;;
57828;SDS011;43657;52.698;6.314;2022-11-20T04:37:45;18.20;;;10.27;;
57828;SDS011;43657;52.698;6.314;2022-11-20T04:40:14;21.58;;;10.88;;
57828;SDS011;43657;52.698;6.314;2022-11-20T04:42:41;16.60;;;9.63;;
57828;SDS011;43657;52.698;6.314;2022-11-20T04:45:10;18.92;;;9.82;;
57828;SDS011;43657;52.698;6.314;2022-11-20T04:47:36;16.45;;;9.98;;
57828;SDS011;43657;52.698;6.314;2022-11-20T04:52:48;23.83;;;11.02;;
57828;SDS011;43657;52.698;6.314;2022-11-20T04:55:21;17.95;;;10.13;;
57828;SDS011;43657;52.698;6.314;2022-11-20T04:57:57;19.70;;;10.68;;
57828;SDS011;43657;52.698;6.314;2022-11-20T05:00:29;20.25;;;10.65;;
57828;SDS011;43657;52.698;6.314;2022-11-20T05:02:55;20.30;;;10.85;;
57828;SDS011;43657;52.698;6.314;2022-11-20T05:05:21;17.60;;;9.63;;
57828;SDS011;43657;52.698;6.314;2022-11-20T05:07:49;15.15;;;9.70;;
57828;SDS011;43657;52.698;6.314;2022-11-20T05:10:18;18.48;;;10.32;;
57828;SDS011;43657;52.698;6.314;2022-11-20T05:12:49;21.42;;;10.50;;
57828;SDS011;43657;52.698;6.314;2022-11-20T05:15:18;14.32;;;9.07;;
57828;SDS011;43657;52.698;6.314;2022-11-20T05:17:48;19.95;;;11.48;;
57828;SDS011;43657;52.698;6.314;2022-11-20T05:20:15;17.05;;;10.02;;
57828;SDS011;43657;52.698;6.314;2022-11-20T05:22:44;15.50;;;9.02;;
57828;SDS011;43657;52.698;6.314;2022-11-20T05:25:13;21.27;;;10.60;;
57828;SDS011;43657;52.698;6.314;2022-11-20T05:27:47;17.52;;;10.25;;
57828;SDS011;43657;52.698;6.314;2022-11-20T05:30:18;19.15;;;11.40;;
57828;SDS011;43657;52.698;6.314;2022-11-20T05:32:59;16.98;;;10.30;;
57828;SDS011;43657;52.698;6.314;2022-11-20T05:35:28;19.15;;;10.85;;
57828;SDS011;43657;52.698;6.314;2022-11-20T05:38:06;19.25;;;10.82;;
57828;SDS011;43657;52.698;6.314;2022-11-20T05:40:35;19.08;;;10.27;;
57828;SDS011;43657;52.698;6.314;2022-11-20T05:43:08;20.77;;;11.52;;
57828;SDS011;43657;52.698;6.314;2022-11-20T05:45:42;17.73;;;9.68;;
57828;SDS011;43657;52.698;6.314;2022-11-20T05:48:30;19.08;;;10.43;;
57828;SDS011;43657;52.698;6.314;2022-11-20T05:51:01;21.90;;;10.95;;
57828;SDS011;43657;52.698;6.314;2022-11-20T05:53:34;19.05;;;10.75;;
57828;SDS011;43657;52.698;6.314;2022-11-20T05:56:03;17.63;;;11.00;;
57828;SDS011;43657;52.698;6.314;2022-11-20T05:58:39;19.63;;;11.05;;
57828;SDS011;43657;52.698;6.314;2022-11-20T06:01:12;17.92;;;11.38;;
57828;SDS011;43657;52.698;6.314;2022-11-20T06:03:50;18.02;;;9.95;;
57828;SDS011;43657;52.698;6.314;2022-11-20T06:06:17;18.35;;;9.80;;
57828;SDS011;43657;52.698;6.314;2022-11-20T06:08:45;18.75;;;10.43;;
57828;SDS011;43657;52.698;6.314;2022-11-20T06:11:15;21.13;;;11.00;;
57828;SDS011;43657;52.698;6.314;2022-11-20T06:13:47;21.63;;;10.50;;
57828;SDS011;43657;52.698;6.314;2022-11-20T06:16:19;19.77;;;10.43;;
57828;SDS011;43657;52.698;6.314;2022-11-20T06:18:48;18.42;;;10.38;;
57828;SDS011;43657;52.698;6.314;2022-11-20T06:21:17;18.58;;;10.05;;
57828;SDS011;43657;52.698;6.314;2022-11-20T06:23:49;21.40;;;11.00;;
57828;SDS011;43657;52.698;6.314;2022-11-20T06:26:40;17.30;;;11.13;;
57828;SDS011;43657;52.698;6.314;2022-11-20T06:29:09;17.40;;;10.52;;
57828;SDS011;43657;52.698;6.314;2022-11-20T06:34:30;17.02;;;10.55;;
57828;SDS011;43657;52.698;6.314;2022-11-20T06:36:59;20.42;;;11.65;;
57828;SDS011;43657;52.698;6.314;2022-11-20T06:39:29;19.80;;;12.38;;
57828;SDS011;43657;52.698;6.314;2022-11-20T06:42:06;20.73;;;12.00;;
57828;SDS011;43657;52.698;6.314;2022-11-20T06:44:34;25.45;;;12.80;;
57828;SDS011;43657;52.698;6.314;2022-11-20T06:49:52;21.10;;;12.80;;
57828;SDS011;43657;52.698;6.314;2022-11-20T06:52:19;23.67;;;13.73;;
57828;SDS011;43657;52.698;6.314;2022-11-20T06:54:59;22.42;;;13.25;;
57828;SDS011;43657;52.698;6.314;2022-11-20T06:57:28;36.50;;;26.63;;
57828;SDS011;43657;52.698;6.314;2022-11-20T06:59:54;24.23;;;13.23;;
57828;SDS011;43657;52.698;6.314;2022-11-20T07:02:23;21.90;;;13.05;;
57828;SDS011;43657;52.698;6.314;2022-11-20T07:04:51;25.95;;;13.43;;
57828;SDS011;43657;52.698;6.314;2022-11-20T07:07:18;24.30;;;14.65;;
57828;SDS011;43657;52.698;6.314;2022-11-20T07:09:51;23.77;;;12.88;;
57828;SDS011;43657;52.698;6.314;2022-11-20T07:12:20;22.05;;;12.57;;
57828;SDS011;43657;52.698;6.314;2022-11-20T07:14:48;25.38;;;13.35;;
57828;SDS011;43657;52.698;6.314;2022-11-20T07:17:16;22.88;;;12.90;;
57828;SDS011;43657;52.698;6.314;2022-11-20T07:23:46;23.35;;;12.93;;
57828;SDS011;43657;52.698;6.314;2022-11-20T07:26:15;22.48;;;12.68;;
57828;SDS011;43657;52.698;6.314;2022-11-20T07:28:43;23.52;;;13.30;;
57828;SDS011;43657;52.698;6.314;2022-11-20T07:31:10;22.33;;;12.63;;
57828;SDS011;43657;52.698;6.314;2022-11-20T07:33:38;20.75;;;12.70;;
57828;SDS011;43657;52.698;6.314;2022-11-20T07:39:25;21.02;;;11.82;;
57828;SDS011;43657;52.698;6.314;2022-11-20T07:41:58;21.45;;;12.63;;
57828;SDS011;43657;52.698;6.314;2022-11-20T07:44:27;21.80;;;13.43;;
57828;SDS011;43657;52.698;6.314;2022-11-20T07:50:52;22.85;;;13.73;;
57828;SDS011;43657;52.698;6.314;2022-11-20T07:53:34;24.20;;;14.90;;
57828;SDS011;43657;52.698;6.314;2022-11-20T07:56:13;35.78;;;28.27;;
57828;SDS011;43657;52.698;6.314;2022-11-20T07:59:27;26.90;;;13.95;;
57828;SDS011;43657;52.698;6.314;2022-11-20T08:05:21;24.83;;;13.40;;
57828;SDS011;43657;52.698;6.314;2022-11-20T08:08:20;33.83;;;27.38;;
57828;SDS011;43657;52.698;6.314;2022-11-20T08:14:30;23.77;;;13.70;;
57828;SDS011;43657;52.698;6.314;2022-11-20T08:20:00;26.10;;;13.10;;
57828;SDS011;43657;52.698;6.314;2022-11-20T08:23:00;29.25;;;15.77;;
57828;SDS011;43657;52.698;6.314;2022-11-20T08:25:49;22.52;;;13.00;;
57828;SDS011;43657;52.698;6.314;2022-11-20T08:28:22;24.10;;;14.27;;
57828;SDS011;43657;52.698;6.314;2022-11-20T08:31:04;24.67;;;14.25;;
57828;SDS011;43657;52.698;6.314;2022-11-20T08:33:38;24.02;;;14.27;;
57828;SDS011;43657;52.698;6.314;2022-11-20T08:36:10;23.30;;;13.50;;
57828;SDS011;43657;52.698;6.314;2022-11-20T08:42:20;31.13;;;25.67;;
57828;SDS011;43657;52.698;6.314;2022-11-20T08:45:06;26.00;;;14.23;;
57828;SDS011;43657;52.698;6.314;2022-11-20T08:47:41;24.73;;;13.90;;
57828;SDS011;43657;52.698;6.314;2022-11-20T08:57:47;23.88;;;13.77;;
57828;SDS011;43657;52.698;6.314;2022-11-20T09:01:10;29.17;;;18.25;;
57828;SDS011;43657;52.698;6.314;2022-11-20T09:04:33;27.92;;;17.60;;
57828;SDS011;43657;52.698;6.314;2022-11-20T09:11:18;26.67;;;15.82;;
57828;SDS011;43657;52.698;6.314;2022-11-20T09:14:36;32.08;;;18.52;;
57828;SDS011;43657;52.698;6.314;2022-11-20T09:24:27;23.80;;;14.00;;
57828;SDS011;43657;52.698;6.314;2022-11-20T09:30:43;21.95;;;13.40;;
57828;SDS011;43657;52.698;6.314;2022-11-20T09:33:08;28.45;;;16.65;;
57828;SDS011;43657;52.698;6.314;2022-11-20T09:35:36;20.08;;;14.07;;
57828;SDS011;43657;52.698;6.314;2022-11-20T09:38:06;22.35;;;14.02;;
57828;SDS011;43657;52.698;6.314;2022-11-20T09:40:37;29.92;;;24.67;;
57828;SDS011;43657;52.698;6.314;2022-11-20T09:54:13;23.60;;;13.90;;
57828;SDS011;43657;52.698;6.314;2022-11-20T09:57:44;21.63;;;11.53;;
57828;SDS011;43657;52.698;6.314;2022-11-20T10:00:36;20.13;;;11.75;;
57828;SDS011;43657;52.698;6.314;2022-11-20T10:03:16;20.50;;;13.68;;
57828;SDS011;43657;52.698;6.314;2022-11-20T10:05:52;19.13;;;12.23;;
57828;SDS011;43657;52.698;6.314;2022-11-20T10:19:34;21.05;;;18.83;;
57828;SDS011;43657;52.698;6.314;2022-11-20T10:27:32;17.05;;;10.93;;
57828;SDS011;43657;52.698;6.314;2022-11-20T10:30:12;21.35;;;19.15;;
57828;SDS011;43657;52.698;6.314;2022-11-20T10:32:42;25.15;;;20.98;;
57828;SDS011;43657;52.698;6.314;2022-11-20T10:37:53;20.08;;;17.98;;
57828;SDS011;43657;52.698;6.314;2022-11-20T10:43:28;18.60;;;16.60;;
57828;SDS011;43657;52.698;6.314;2022-11-20T10:46:00;18.00;;;15.90;;
57828;SDS011;43657;52.698;6.314;2022-11-20T10:48:30;17.75;;;15.85;;
57828;SDS011;43657;52.698;6.314;2022-11-20T10:53:47;17.80;;;15.07;;
57828;SDS011;43657;52.698;6.314;2022-11-20T10:56:40;16.98;;;15.18;;
57828;SDS011;43657;52.698;6.314;2022-11-20T11:02:23;15.77;;;14.13;;
57828;SDS011;43657;52.698;6.314;2022-11-20T11:04:59;16.13;;;14.43;;
57828;SDS011;43657;52.698;6.314;2022-11-20T11:07:38;18.45;;;16.45;;
57828;SDS011;43657;52.698;6.314;2022-11-20T11:10:18;20.20;;;15.80;;
57828;SDS011;43657;52.698;6.314;2022-11-20T11:12:48;18.98;;;17.08;;
57828;SDS011;43657;52.698;6.314;2022-11-20T11:15:25;19.05;;;17.13;;
57828;SDS011;43657;52.698;6.314;2022-11-20T11:17:55;19.27;;;17.17;;
57828;SDS011;43657;52.698;6.314;2022-11-20T11:20:25;20.10;;;18.02;;
57828;SDS011;43657;52.698;6.314;2022-11-20T11:22:55;24.10;;;21.50;;
57828;SDS011;43657;52.698;6.314;2022-11-20T11:28:02;16.10;;;14.40;;
57828;SDS011;43657;52.698;6.314;2022-11-20T11:30:30;16.40;;;14.50;;
57828;SDS011;43657;52.698;6.314;2022-11-20T11:33:11;17.23;;;15.30;;
57828;SDS011;43657;52.698;6.314;2022-11-20T11:35:48;16.45;;;14.70;;
57828;SDS011;43657;52.698;6.314;2022-11-20T11:38:27;19.63;;;15.52;;
57828;SDS011;43657;52.698;6.314;2022-11-20T11:41:04;18.55;;;16.55;;
57828;SDS011;43657;52.698;6.314;2022-11-20T11:43:36;16.88;;;14.98;;
57828;SDS011;43657;52.698;6.314;2022-11-20T11:46:25;16.00;;;14.30;;
57828;SDS011;43657;52.698;6.314;2022-11-20T11:49:11;16.15;;;14.45;;
57828;SDS011;43657;52.698;6.314;2022-11-20T11:57:27;14.77;;;13.13;;
57828;SDS011;43657;52.698;6.314;2022-11-20T12:00:20;15.20;;;13.60;;
57828;SDS011;43657;52.698;6.314;2022-11-20T12:05:22;15.57;;;13.95;;
57828;SDS011;43657;52.698;6.314;2022-11-20T12:10:56;17.40;;;15.60;;
57828;SDS011;43657;52.698;6.314;2022-11-20T12:13:32;16.25;;;14.50;;
57828;SDS011;43657;52.698;6.314;2022-11-20T12:16:00;15.75;;;14.15;;
57828;SDS011;43657;52.698;6.314;2022-11-20T12:18:27;16.17;;;14.57;;
57828;SDS011;43657;52.698;6.314;2022-11-20T12:26:29;23.83;;;20.15;;
57828;SDS011;43657;52.698;6.314;2022-11-20T12:32:22;21.38;;;19.08;;
57828;SDS011;43657;52.698;6.314;2022-11-20T12:38:08;19.60;;;17.63;;
57828;SDS011;43657;52.698;6.314;2022-11-20T12:40:47;17.92;;;15.82;;
57828;SDS011;43657;52.698;6.314;2022-11-20T12:43:22;16.65;;;14.95;;
57828;SDS011;43657;52.698;6.314;2022-11-20T12:52:01;22.00;;;19.63;;
57828;SDS011;43657;52.698;6.314;2022-11-20T13:07:18;29.35;;;24.25;;
57828;SDS011;43657;52.698;6.314;2022-11-20T13:09:47;22.40;;;18.65;;
57828;SDS011;43657;52.698;6.314;2022-11-20T13:12:17;21.38;;;19.17;;
57828;SDS011;43657;52.698;6.314;2022-11-20T13:15:14;20.80;;;18.70;;
57828;SDS011;43657;52.698;6.314;2022-11-20T13:17:58;17.45;;;15.65;;
57828;SDS011;43657;52.698;6.314;2022-11-20T13:20:25;19.23;;;17.15;;
57828;SDS011;43657;52.698;6.314;2022-11-20T13:22:53;19.08;;;17.10;;
57828;SDS011;43657;52.698;6.314;2022-11-20T13:25:27;20.55;;;18.35;;
57828;SDS011;43657;52.698;6.314;2022-11-20T13:28:03;17.92;;;16.02;;
57828;SDS011;43657;52.698;6.314;2022-11-20T13:30:35;18.63;;;16.65;;
57828;SDS011;43657;52.698;6.314;2022-11-20T13:35:54;18.70;;;16.55;;
57828;SDS011;43657;52.698;6.314;2022-11-20T13:38:26;18.90;;;16.85;;
57828;SDS011;43657;52.698;6.314;2022-11-20T13:43:39;18.73;;;16.83;;
57828;SDS011;43657;52.698;6.314;2022-11-20T13:46:07;19.85;;;16.95;;
57828;SDS011;43657;52.698;6.314;2022-11-20T13:48:41;19.33;;;16.98;;
57828;SDS011;43657;52.698;6.314;2022-11-20T13:54:04;18.75;;;16.75;;
57828;SDS011;43657;52.698;6.314;2022-11-20T13:59:57;18.43;;;16.43;;
57828;SDS011;43657;52.698;6.314;2022-11-20T14:02:29;19.15;;;16.85;;
57828;SDS011;43657;52.698;6.314;2022-11-20T14:04:57;18.92;;;16.98;;
57828;SDS011;43657;52.698;6.314;2022-11-20T14:07:27;19.50;;;17.33;;
57828;SDS011;43657;52.698;6.314;2022-11-20T14:10:00;19.33;;;17.25;;
57828;SDS011;43657;52.698;6.314;2022-11-20T14:12:29;20.67;;;18.45;;
57828;SDS011;43657;52.698;6.314;2022-11-20T14:14:57;20.73;;;18.52;;
57828;SDS011;43657;52.698;6.314;2022-11-20T14:17:33;18.90;;;16.90;;
57828;SDS011;43657;52.698;6.314;2022-11-20T14:20:06;19.73;;;17.63;;
57828;SDS011;43657;52.698;6.314;2022-11-20T14:22:39;17.55;;;15.52;;
57828;SDS011;43657;52.698;6.314;2022-11-20T14:27:40;18.80;;;16.83;;
57828;SDS011;43657;52.698;6.314;2022-11-20T14:33:09;23.13;;;18.65;;
57828;SDS011;43657;52.698;6.314;2022-11-20T14:35:40;30.30;;;24.85;;
57828;SDS011;43657;52.698;6.314;2022-11-20T14:38:11;21.48;;;19.17;;
57828;SDS011;43657;52.698;6.314;2022-11-20T14:40:38;22.48;;;20.02;;
57828;SDS011;43657;52.698;6.314;2022-11-20T14:45:59;21.60;;;19.20;;
57828;SDS011;43657;52.698;6.314;2022-11-20T14:48:40;19.38;;;17.45;;
57828;SDS011;43657;52.698;6.314;2022-11-20T14:51:11;21.45;;;19.10;;
57828;SDS011;43657;52.698;6.314;2022-11-20T14:53:37;22.27;;;19.95;;
57828;SDS011;43657;52.698;6.314;2022-11-20T14:56:03;21.10;;;18.95;;
57828;SDS011;43657;52.698;6.314;2022-11-20T14:58:32;26.33;;;23.45;;
57828;SDS011;43657;52.698;6.314;2022-11-20T15:01:03;28.50;;;23.95;;
57828;SDS011;43657;52.698;6.314;2022-11-20T15:03:34;25.98;;;23.20;;
57828;SDS011;43657;52.698;6.314;2022-11-20T15:06:11;21.80;;;19.58;;
57828;SDS011;43657;52.698;6.314;2022-11-20T15:11:49;20.08;;;17.98;;
57828;SDS011;43657;52.698;6.314;2022-11-20T15:14:31;21.90;;;18.92;;
57828;SDS011;43657;52.698;6.314;2022-11-20T15:17:02;20.58;;;18.42;;
57828;SDS011;43657;52.698;6.314;2022-11-20T15:19:28;20.88;;;18.55;;
57828;SDS011;43657;52.698;6.314;2022-11-20T15:21:54;22.75;;;19.63;;
57828;SDS011;43657;52.698;6.314;2022-11-20T15:24:19;20.58;;;18.45;;
57828;SDS011;43657;52.698;6.314;2022-11-20T15:26:47;21.85;;;18.02;;
57828;SDS011;43657;52.698;6.314;2022-11-20T15:29:18;21.25;;;19.02;;
57828;SDS011;43657;52.698;6.314;2022-11-20T15:31:45;22.17;;;19.88;;
57828;SDS011;43657;52.698;6.314;2022-11-20T15:34:18;19.73;;;17.73;;
57828;SDS011;43657;52.698;6.314;2022-11-20T15:36:47;21.88;;;19.67;;
57828;SDS011;43657;52.698;6.314;2022-11-20T15:39:18;21.40;;;19.20;;
57828;SDS011;43657;52.698;6.314;2022-11-20T15:41:43;21.10;;;18.90;;
57828;SDS011;43657;52.698;6.314;2022-11-20T15:44:09;21.13;;;18.92;;
57828;SDS011;43657;52.698;6.314;2022-11-20T15:46:39;22.00;;;19.45;;
57828;SDS011;43657;52.698;6.314;2022-11-20T15:49:11;22.83;;;20.50;;
57828;SDS011;43657;52.698;6.314;2022-11-20T15:51:42;21.48;;;19.15;;
57828;SDS011;43657;52.698;6.314;2022-11-20T15:54:23;20.88;;;18.67;;
57828;SDS011;43657;52.698;6.314;2022-11-20T15:56:49;23.55;;;21.10;;
57828;SDS011;43657;52.698;6.314;2022-11-20T15:59:28;22.38;;;19.98;;
57828;SDS011;43657;52.698;6.314;2022-11-20T16:02:07;22.10;;;19.90;;
57828;SDS011;43657;52.698;6.314;2022-11-20T16:04:51;22.70;;;20.40;;
57828;SDS011;43657;52.698;6.314;2022-11-20T16:07:31;22.80;;;20.35;;
57828;SDS011;43657;52.698;6.314;2022-11-20T16:10:33;22.70;;;20.40;;
57828;SDS011;43657;52.698;6.314;2022-11-20T16:13:27;22.92;;;20.45;;
57828;SDS011;43657;52.698;6.314;2022-11-20T16:16:24;22.70;;;20.25;;
57828;SDS011;43657;52.698;6.314;2022-11-20T16:18:56;22.30;;;19.23;;
57828;SDS011;43657;52.698;6.314;2022-11-20T16:21:25;23.02;;;19.77;;
57828;SDS011;43657;52.698;6.314;2022-11-20T16:24:01;35.55;;;28.35;;
57828;SDS011;43657;52.698;6.314;2022-11-20T16:26:31;24.40;;;21.50;;
57828;SDS011;43657;52.698;6.314;2022-11-20T16:28:58;23.92;;;21.45;;
57828;SDS011;43657;52.698;6.314;2022-11-20T16:35:48;23.60;;;21.10;;
57828;SDS011;43657;52.698;6.314;2022-11-20T16:38:40;23.05;;;20.63;;
57828;SDS011;43657;52.698;6.314;2022-11-20T16:41:21;23.77;;;21.27;;
57828;SDS011;43657;52.698;6.314;2022-11-20T16:44:08;23.00;;;20.50;;
57828;SDS011;43657;52.698;6.314;2022-11-20T16:54:00;28.30;;;24.85;;
57828;SDS011;43657;52.698;6.314;2022-11-20T16:56:32;29.52;;;24.92;;
57828;SDS011;43657;52.698;6.314;2022-11-20T16:59:24;22.13;;;19.75;;
57828;SDS011;43657;52.698;6.314;2022-11-20T17:01:53;22.65;;;20.25;;
57828;SDS011;43657;52.698;6.314;2022-11-20T17:04:39;23.75;;;21.27;;
57828;SDS011;43657;52.698;6.314;2022-11-20T17:07:06;24.02;;;21.52;;
57828;SDS011;43657;52.698;6.314;2022-11-20T17:10:58;22.17;;;19.83;;
57828;SDS011;43657;52.698;6.314;2022-11-20T17:17:32;24.83;;;22.10;;
57828;SDS011;43657;52.698;6.314;2022-11-20T17:24:31;24.67;;;22.00;;
57828;SDS011;43657;52.698;6.314;2022-11-20T17:27:21;26.48;;;23.63;;
57828;SDS011;43657;52.698;6.314;2022-11-20T17:33:37;29.33;;;25.60;;
57828;SDS011;43657;52.698;6.314;2022-11-20T17:36:18;30.10;;;26.02;;
57828;SDS011;43657;52.698;6.314;2022-11-20T17:38:45;31.00;;;27.65;;
57828;SDS011;43657;52.698;6.314;2022-11-20T17:41:11;30.75;;;27.50;;
57828;SDS011;43657;52.698;6.314;2022-11-20T17:43:43;30.88;;;27.75;;
57828;SDS011;43657;52.698;6.314;2022-11-20T17:49:00;40.35;;;34.55;;
57828;SDS011;43657;52.698;6.314;2022-11-20T17:51:29;35.27;;;31.57;;
57828;SDS011;43657;52.698;6.314;2022-11-20T17:54:06;37.25;;;31.77;;
57828;SDS011;43657;52.698;6.314;2022-11-20T17:56:58;43.35;;;37.55;;
57828;SDS011;43657;52.698;6.314;2022-11-20T18:00:08;35.97;;;31.88;;
57828;SDS011;43657;52.698;6.314;2022-11-20T18:03:41;38.90;;;34.15;;
57828;SDS011;43657;52.698;6.314;2022-11-20T18:06:31;37.08;;;33.03;;
57828;SDS011;43657;52.698;6.314;2022-11-20T18:09:19;37.55;;;33.13;;
57828;SDS011;43657;52.698;6.314;2022-11-20T18:12:11;39.92;;;33.17;;
57828;SDS011;43657;52.698;6.314;2022-11-20T18:14:39;36.65;;;31.95;;
57828;SDS011;43657;52.698;6.314;2022-11-20T18:17:33;40.25;;;34.50;;